Time;durP1;ratioP1;P1;durP2;ratioP2;P2;SDS_P1;SDS_P2;PMS_P1;PMS_P2;Temp;Humidity;BMP_temperature;BMP_pressure;BME280_temperature;BME280_humidity;BME280_pressure;Samples;Min_cycle;Max_cycle;Signal;HPM_P1;HPM_P2
2022/06/11 00:01:20;;;;;;;11.32;9.93;;;;;;;21.99;78.49;94082.91;5132946;27;20191;-78
2022/06/11 00:03:49;;;;;;;10.48;8.82;;;;;;;21.96;78.39;94072.13;5120296;27;20227;-78
2022/06/11 00:06:16;;;;;;;9.98;9.07;;;;;;;21.97;78.50;94071.88;5132344;27;20224;-79
2022/06/11 00:08:44;;;;;;;10.20;9.30;;;;;;;21.77;78.52;94038.34;5113583;27;20196;-79
2022/06/11 00:11:11;;;;;;;10.18;8.73;;;;;;;21.88;78.72;94062.81;5111971;28;20199;-77
2022/06/11 00:13:38;;;;;;;9.75;8.85;;;;;;;21.98;78.35;94075.31;5111971;28;20660;-78
2022/06/11 00:16:06;;;;;;;8.98;8.13;;;;;;;21.93;78.39;94069.97;5111816;28;20559;-79
2022/06/11 00:18:35;;;;;;;8.70;7.90;;;;;;;21.96;78.63;94075.53;5111906;27;20511;-78
2022/06/11 00:21:04;;;;;;;8.15;7.43;;;;;;;21.95;78.44;94076.53;5111419;28;20193;-79
2022/06/11 00:23:31;;;;;;;9.23;8.43;;;;;;;21.96;78.73;94072.13;5112292;28;20563;-80
2022/06/11 00:25:58;;;;;;;8.50;7.78;;;;;;;21.94;78.75;94066.38;5111880;27;20228;-79
2022/06/11 00:28:25;;;;;;;8.52;7.55;;;;;;;21.95;78.68;94073.16;5106400;27;20561;-79
2022/06/11 00:30:52;;;;;;;7.60;6.90;;;;;;;21.93;78.93;94065.53;5111556;28;20185;-77
2022/06/11 00:33:20;;;;;;;8.70;8.00;;;;;;;21.92;78.84;94070.97;5112134;28;20181;-79
2022/06/11 00:35:47;;;;;;;7.70;7.07;;;;;;;21.93;78.69;94080.38;5111382;28;20552;-78
2022/06/11 00:38:17;;;;;;;7.88;7.10;;;;;;;21.91;78.93;94072.78;5111682;28;20189;-79
2022/06/11 00:40:46;;;;;;;7.70;7.10;;;;;;;21.92;78.92;94076.97;5111606;28;20215;-77
2022/06/11 00:43:15;;;;;;;8.63;7.82;;;;;;;21.91;78.97;94080.59;5111427;28;20182;-77
2022/06/11 00:45:45;;;;;;;7.28;6.68;;;;;;;21.91;78.85;94075.41;5115181;27;20212;-77
2022/06/11 00:48:16;;;;;;;8.10;7.30;;;;;;;21.90;78.93;94076.41;5132433;27;20219;-77
2022/06/11 00:50:46;;;;;;;8.70;7.88;;;;;;;21.90;79.00;94073.03;5131990;27;20188;-78
2022/06/11 00:53:18;;;;;;;8.43;7.63;;;;;;;21.89;79.00;94071.41;5133259;27;20203;-78
2022/06/11 00:55:49;;;;;;;9.20;7.40;;;;;;;21.88;79.10;94073.22;5132041;27;20232;-76
2022/06/11 00:58:20;;;;;;;8.32;7.50;;;;;;;21.88;79.03;94069.84;5134898;27;20195;-77
2022/06/11 01:00:52;;;;;;;8.38;7.57;;;;;;;21.90;78.75;94075.63;5135138;27;20180;-78
2022/06/11 01:03:24;;;;;;;9.30;8.35;;;;;;;21.88;78.92;94067.22;5134599;27;20237;-78
2022/06/11 01:06:00;;;;;;;9.77;8.88;;;;;;;21.84;79.03;94066.88;5119926;27;20708;-78
2022/06/11 01:08:41;;;;;;;8.95;8.15;;;;;;;21.87;79.17;94079.47;5111000;28;20196;-77
2022/06/11 01:11:44;;;;;;;7.90;7.20;;;;;;;21.87;79.41;94068.25;5110727;28;20200;-77
2022/06/11 01:14:24;;;;;;;8.68;7.88;;;;;;;21.79;79.16;94064.94;5110522;28;20204;-76
2022/06/11 01:17:04;;;;;;;7.43;6.72;;;;;;;21.85;79.46;94068.50;5129049;28;20196;-77
2022/06/11 01:20:17;;;;;;;9.30;7.55;;;;;;;21.85;79.65;94071.09;5111956;28;20192;-78
2022/06/11 01:23:14;;;;;;;11.90;7.68;;;;;;;21.83;79.76;94064.50;5090252;28;20189;-78
2022/06/11 01:25:54;;;;;;;9.15;8.32;;;;;;;21.83;79.73;94067.91;5122345;28;20220;-77
2022/06/11 01:28:39;;;;;;;9.40;8.50;;;;;;;21.83;79.65;94069.72;5131010;28;20224;-77
2022/06/11 01:31:13;;;;;;;9.55;8.55;;;;;;;21.82;79.72;94071.53;5130313;28;20208;-77
2022/06/11 01:33:51;;;;;;;8.50;7.70;;;;;;;21.81;79.73;94072.56;5131552;28;20194;-79
2022/06/11 01:36:22;;;;;;;9.13;8.25;;;;;;;21.82;79.79;94078.53;5131042;28;20203;-78
2022/06/11 01:38:56;;;;;;;9.68;8.77;;;;;;;21.82;79.99;94073.34;5131013;28;20188;-78
2022/06/11 01:41:33;;;;;;;9.73;8.65;;;;;;;21.81;79.97;94080.38;5130613;28;20187;-78
2022/06/11 01:44:03;;;;;;;9.27;7.90;;;;;;;21.75;79.87;94065.63;5121173;28;20615;-78
2022/06/11 01:46:35;;;;;;;8.38;7.50;;;;;;;21.74;79.71;94070.03;5110423;28;20273;-77
2022/06/11 01:49:09;;;;;;;10.07;8.30;;;;;;;21.76;79.71;94070.63;5110037;28;20235;-79
2022/06/11 01:51:54;;;;;;;8.70;7.88;;;;;;;21.73;79.94;94065.84;5128668;28;20642;-78
2022/06/11 01:54:32;;;;;;;8.20;7.47;;;;;;;21.79;79.87;94082.38;5130993;28;20199;-77
2022/06/11 01:57:35;;;;;;;9.63;8.63;;;;;;;21.79;80.19;94077.16;5131266;28;20188;-78
2022/06/11 02:00:09;;;;;;;9.45;7.85;;;;;;;21.77;80.04;94080.00;5110621;28;20223;-78
2022/06/11 02:03:03;;;;;;;9.32;8.40;;;;;;;21.77;80.10;94085.22;5113923;28;20584;-80
2022/06/11 02:05:42;;;;;;;9.32;7.50;;;;;;;21.74;80.33;94083.03;5027697;28;20187;-77
2022/06/11 02:08:17;;;;;;;8.32;7.63;;;;;;;21.76;80.23;94082.81;5027211;28;20207;-78
2022/06/11 02:10:49;;;;;;;8.02;7.32;;;;;;;21.75;80.27;94079.41;5027773;28;20198;-79
2022/06/11 02:13:25;;;;;;;9.50;8.43;;;;;;;21.69;80.36;94067.31;5020352;28;20196;-79
2022/06/11 02:15:58;;;;;;;7.95;7.18;;;;;;;21.74;80.36;94077.03;5009785;28;20192;-78
2022/06/11 02:18:28;;;;;;;7.75;7.05;;;;;;;21.73;80.19;94073.66;5011847;28;20696;-78
2022/06/11 02:21:00;;;;;;;8.18;7.47;;;;;;;21.73;80.29;94075.47;5011002;28;20195;-78
2022/06/11 02:23:32;;;;;;;8.15;7.20;;;;;;;21.64;80.08;94067.19;5028194;28;20207;-78
2022/06/11 02:26:03;;;;;;;11.32;7.00;;;;;;;21.72;80.00;94085.09;5030603;28;20246;-78
2022/06/11 02:28:37;;;;;;;8.02;7.32;;;;;;;21.70;80.26;94079.28;5030183;28;20192;-78
2022/06/11 02:31:08;;;;;;;7.53;6.72;;;;;;;21.70;80.29;94081.09;5030637;28;20180;-78
2022/06/11 02:33:37;;;;;;;7.25;6.60;;;;;;;21.53;80.09;94063.50;5030897;28;20674;-78
2022/06/11 02:36:13;;;;;;;6.85;6.18;;;;;;;21.65;80.00;94073.97;5030577;28;20195;-78
2022/06/11 02:38:41;;;;;;;7.85;7.05;;;;;;;21.67;79.95;94079.72;5030535;28;20202;-77
2022/06/11 02:41:13;;;;;;;7.82;7.13;;;;;;;21.65;79.90;94086.19;5025516;28;20188;-78
2022/06/11 02:43:40;;;;;;;7.28;6.68;;;;;;;21.66;80.07;94082.56;5113937;28;20177;-78
2022/06/11 02:48:52;;;;;;;8.10;7.40;;;;;;;21.65;80.16;94079.16;5112712;28;20316;-78
2022/06/11 02:51:20;;;;;;;7.60;6.90;;;;;;;21.58;79.97;94072.47;5129770;27;20280;-78
2022/06/11 02:53:47;;;;;;;7.28;6.60;;;;;;;21.58;79.88;94078.44;5134041;27;20191;-78
2022/06/11 02:56:14;;;;;;;7.20;6.60;;;;;;;21.63;79.75;94083.81;5132692;27;20196;-78
2022/06/11 02:58:42;;;;;;;8.27;6.15;;;;;;;21.62;79.93;94090.00;5134099;27;20558;-77
2022/06/11 03:01:09;;;;;;;7.32;6.63;;;;;;;21.60;80.22;94092.06;5121578;27;20181;-78
2022/06/11 03:03:37;;;;;;;7.68;7.03;;;;;;;21.60;80.04;94089.44;5113133;28;20230;-78
2022/06/11 03:06:06;;;;;;;7.53;6.55;;;;;;;21.60;80.27;94093.88;5112079;28;20221;-78
2022/06/11 03:08:33;;;;;;;7.55;6.85;;;;;;;21.60;79.96;94094.66;5113057;28;20181;-79
2022/06/11 03:11:01;;;;;;;7.05;6.45;;;;;;;21.60;79.79;94096.47;5120162;27;20189;-78
2022/06/11 03:13:30;;;;;;;7.22;6.53;;;;;;;21.58;80.04;94101.09;5133450;27;20199;-78
2022/06/11 03:15:57;;;;;;;7.60;6.45;;;;;;;21.58;79.83;94090.66;5133254;27;20237;-78
2022/06/11 03:18:25;;;;;;;6.90;6.30;;;;;;;21.60;79.80;94106.88;5133134;27;20200;-78
2022/06/11 03:20:52;;;;;;;9.95;6.53;;;;;;;21.59;80.09;94103.47;5117600;27;20208;-78
2022/06/11 03:23:21;;;;;;;7.95;6.88;;;;;;;21.59;80.08;94102.66;5112613;28;20196;-78
2022/06/11 03:25:48;;;;;;;7.57;6.88;;;;;;;21.59;79.97;94106.09;5112699;27;20185;-77
2022/06/11 03:28:18;;;;;;;7.05;6.40;;;;;;;21.58;80.06;94109.69;5111757;28;20181;-77
2022/06/11 03:30:45;;;;;;;8.25;6.40;;;;;;;21.59;80.39;94113.88;5112704;27;20196;-78
2022/06/11 03:33:13;;;;;;;7.25;6.65;;;;;;;21.59;80.16;94111.28;5112297;28;20640;-79
2022/06/11 03:35:41;;;;;;;6.82;6.22;;;;;;;21.59;80.24;94113.88;5112918;28;20200;-77
2022/06/11 03:38:08;;;;;;;7.47;6.78;;;;;;;21.56;80.06;94105.72;5112253;28;20929;-78
2022/06/11 03:40:37;;;;;;;7.20;6.50;;;;;;;21.50;80.05;94092.59;5131966;27;20196;-78
2022/06/11 03:43:04;;;;;;;6.80;6.18;;;;;;;21.60;80.08;94112.88;5132573;27;20200;-79
2022/06/11 03:45:33;;;;;;;6.85;6.25;;;;;;;21.63;80.04;94111.63;5132860;27;20761;-78
2022/06/11 03:47:59;;;;;;;7.45;6.85;;;;;;;21.65;80.23;94107.00;5132457;27;20232;-79
2022/06/11 03:50:30;;;;;;;6.70;6.10;;;;;;;21.64;80.04;94108.81;5119849;27;20200;-78
2022/06/11 03:52:57;;;;;;;7.30;6.70;;;;;;;21.67;80.21;94104.97;5111695;28;20663;-78
2022/06/11 03:55:25;;;;;;;7.60;6.40;;;;;;;21.67;80.14;94103.16;5131388;27;20188;-77
2022/06/11 03:57:54;;;;;;;6.72;6.13;;;;;;;21.69;80.11;94110.75;5131666;27;20206;-78
2022/06/11 04:03:07;;;;;;;6.90;6.00;;;;;;;21.73;80.14;94115.31;5131269;27;20184;-77
2022/06/11 04:05:35;;;;;;;6.53;5.93;;;;;;;21.70;80.13;94107.13;5132179;27;20579;-77
2022/06/11 04:08:01;;;;;;;6.63;6.03;;;;;;;21.76;80.03;94112.25;5131793;27;20613;-77
2022/06/11 04:10:28;;;;;;;6.90;6.28;;;;;;;21.79;80.05;94113.63;5132180;27;20192;-76
2022/06/11 04:12:57;;;;;;;6.80;6.20;;;;;;;21.77;79.82;94107.84;5132697;27;20180;-77
2022/06/11 04:15:24;;;;;;;7.88;6.50;;;;;;;21.83;79.90;94114.75;5132091;27;20667;-78
2022/06/11 04:17:52;;;;;;;7.10;6.50;;;;;;;21.84;80.00;94121.56;5122609;27;20185;-78
2022/06/11 04:20:19;;;;;;;7.53;6.82;;;;;;;21.84;79.97;94116.34;5111105;28;20193;-77
2022/06/11 04:22:46;;;;;;;7.05;6.40;;;;;;;21.83;80.03;94117.38;5111585;28;20189;-78
2022/06/11 04:25:15;;;;;;;7.43;6.40;;;;;;;21.86;79.85;94118.75;5111237;28;20192;-78
2022/06/11 04:27:42;;;;;;;6.85;6.15;;;;;;;21.87;79.86;94128.13;5111442;28;20699;-78
2022/06/11 04:30:14;;;;;;;7.07;6.40;;;;;;;21.87;79.91;94120.31;5111029;27;20652;-78
2022/06/11 04:32:42;;;;;;;6.57;5.97;;;;;;;21.85;80.00;94117.13;5091169;28;20189;-79
2022/06/11 04:35:09;;;;;;;6.45;5.85;;;;;;;21.87;79.98;94121.13;5090628;28;20606;-77
2022/06/11 04:37:36;;;;;;;7.05;6.28;;;;;;;21.88;79.74;94127.91;5118836;27;20215;-77
2022/06/11 04:40:07;;;;;;;5.53;5.03;;;;;;;21.87;79.78;94122.94;5130712;27;20195;-77
2022/06/11 04:42:35;;;;;;;5.65;5.10;;;;;;;21.88;79.67;94124.50;5131545;27;20177;-77
2022/06/11 04:45:03;;;;;;;5.85;5.35;;;;;;;21.88;79.62;94133.09;5131688;27;20207;-77
2022/06/11 04:47:32;;;;;;;6.45;5.00;;;;;;;21.84;79.20;94125.97;5131472;27;20227;-77
2022/06/11 04:50:01;;;;;;;5.20;4.70;;;;;;;21.88;79.48;94135.72;5121345;27;20192;-79
2022/06/11 04:52:28;;;;;;;5.22;4.72;;;;;;;21.87;79.43;94143.75;5110714;27;20275;-77
2022/06/11 04:54:55;;;;;;;5.32;4.82;;;;;;;21.88;79.23;94147.94;5110707;28;20652;-79
2022/06/11 04:57:23;;;;;;;7.63;4.85;;;;;;;21.87;79.29;94148.97;5129124;27;20615;-77
2022/06/11 04:59:50;;;;;;;5.15;4.65;;;;;;;21.86;79.19;94155.19;5131178;27;20571;-77
2022/06/11 05:02:17;;;;;;;5.18;4.43;;;;;;;21.85;78.90;94153.56;5112333;27;20196;-78
2022/06/11 05:04:50;;;;;;;5.47;4.60;;;;;;;21.85;78.83;94154.41;5111013;28;20181;-77
2022/06/11 05:07:17;;;;;;;5.03;4.53;;;;;;;21.78;78.91;94145.88;5093059;28;20216;-77
2022/06/11 05:09:44;;;;;;;5.57;5.07;;;;;;;21.85;78.70;94164.81;5111047;28;20189;-78
2022/06/11 05:12:12;;;;;;;8.50;4.20;;;;;;;21.86;78.92;94165.59;5110439;28;20181;-78
2022/06/11 05:14:39;;;;;;;4.30;3.90;;;;;;;21.80;79.02;94159.44;5112472;28;20669;-77
2022/06/11 05:17:07;;;;;;;4.72;4.10;;;;;;;21.87;78.70;94169.78;5131125;28;20195;-79
2022/06/11 05:19:34;;;;;;;4.30;3.92;;;;;;;21.89;78.88;94165.13;5129341;28;20206;-78
2022/06/11 05:22:02;;;;;;;4.32;3.95;;;;;;;21.87;78.74;94159.38;5131213;28;20188;-77
2022/06/11 05:24:29;;;;;;;4.60;4.20;;;;;;;21.92;78.69;94167.31;5116323;28;20200;-78
2022/06/11 05:26:59;;;;;;;3.95;3.58;;;;;;;21.91;78.61;94168.34;5111196;28;20637;-79
2022/06/11 05:29:29;;;;;;;3.88;3.58;;;;;;;21.88;78.23;94163.56;5111328;28;20208;-80
2022/06/11 05:31:57;;;;;;;3.58;3.30;;;;;;;21.97;78.01;94178.66;5123219;28;20188;-79
2022/06/11 05:34:24;;;;;;;5.00;3.60;;;;;;;22.02;77.62;94186.63;5124644;28;20176;-79
2022/06/11 05:36:51;;;;;;;3.75;3.35;;;;;;;22.11;77.84;94188.91;5110310;28;20204;-79
2022/06/11 05:39:19;;;;;;;4.43;3.13;;;;;;;22.15;77.65;94193.50;5110236;28;20738;-77
2022/06/11 05:41:47;;;;;;;3.78;3.47;;;;;;;22.19;77.42;94191.22;5110140;28;20181;-78
2022/06/11 05:44:14;;;;;;;4.57;4.18;;;;;;;22.20;77.38;94188.41;5113100;28;20739;-79
2022/06/11 05:46:41;;;;;;;6.32;3.67;;;;;;;22.21;77.49;94189.19;5130814;28;20180;-78
2022/06/11 05:49:14;;;;;;;3.78;3.47;;;;;;;22.19;77.46;94186.00;5126045;28;20220;-79
2022/06/11 05:51:44;;;;;;;4.55;4.15;;;;;;;22.28;77.10;94200.31;5133818;27;20715;-76
2022/06/11 05:54:16;;;;;;;4.43;4.03;;;;;;;22.33;76.83;94191.84;5127173;27;20199;-76
2022/06/11 05:56:45;;;;;;;4.22;3.83;;;;;;;22.34;76.78;94190.81;5114377;28;20189;-77
2022/06/11 05:59:16;;;;;;;4.53;4.13;;;;;;;22.34;76.98;94183.78;5114156;28;20219;-76
2022/06/11 06:01:44;;;;;;;5.00;4.38;;;;;;;22.46;76.68;94205.47;5114209;28;20628;-78
2022/06/11 06:04:11;;;;;;;5.05;4.57;;;;;;;22.53;76.18;94205.34;5113997;28;20192;-79
2022/06/11 06:06:38;;;;;;;6.05;3.88;;;;;;;22.54;76.07;94205.16;5113754;28;20280;-78
2022/06/11 06:09:05;;;;;;;5.07;4.18;;;;;;;22.60;76.01;94207.88;5113904;28;20277;-80
2022/06/11 06:11:32;;;;;;;9.73;3.53;;;;;;;22.63;75.85;94205.63;5114356;28;20185;-80
2022/06/11 06:14:00;;;;;;;3.97;3.67;;;;;;;22.65;75.87;94203.56;5113657;28;20193;-76
2022/06/11 06:16:30;;;;;;;4.28;3.97;;;;;;;22.66;75.54;94205.16;5113760;28;20185;-81
2022/06/11 06:18:57;;;;;;;4.70;4.20;;;;;;;22.67;75.43;94201.56;5114795;27;20695;-77
2022/06/11 06:21:27;;;;;;;4.30;3.90;;;;;;;22.68;75.59;94215.38;5116062;27;20200;-79
2022/06/11 06:23:54;;;;;;;4.38;3.97;;;;;;;22.68;75.85;94212.75;5134370;27;20188;-79
2022/06/11 06:26:22;;;;;;;4.15;3.80;;;;;;;22.67;75.80;94211.19;5134165;27;20192;-79
2022/06/11 06:28:49;;;;;;;4.43;3.90;;;;;;;22.19;75.62;94139.13;5134239;27;21066;-80
2022/06/11 06:31:18;;;;;;;4.07;3.78;;;;;;;22.69;75.79;94224.78;5133950;27;20223;-79
2022/06/11 06:33:46;;;;;;;4.32;3.92;;;;;;;22.70;75.50;94226.34;5114697;27;20185;-79
2022/06/11 06:36:15;;;;;;;4.95;3.65;;;;;;;22.69;75.71;94219.56;5113594;28;20203;-77
2022/06/11 06:38:42;;;;;;;3.90;3.60;;;;;;;22.74;75.46;94223.06;5113149;28;20193;-79
2022/06/11 06:41:10;;;;;;;4.68;4.10;;;;;;;22.74;75.28;94230.91;5113241;28;20196;-77
2022/06/11 06:43:37;;;;;;;4.90;4.30;;;;;;;22.71;75.32;94218.34;5114233;27;20220;-77
2022/06/11 06:46:04;;;;;;;4.30;3.90;;;;;;;22.74;75.11;94224.91;5113378;28;20189;-76
2022/06/11 06:48:33;;;;;;;4.07;3.75;;;;;;;22.79;75.20;94230.22;5113095;27;20224;-77
2022/06/11 06:51:01;;;;;;;5.25;4.60;;;;;;;22.80;75.08;94231.84;5113449;28;20189;-78
2022/06/11 06:53:28;;;;;;;4.53;4.13;;;;;;;22.81;75.01;94228.19;5114017;27;20234;-77
2022/06/11 06:55:55;;;;;;;10.40;3.63;;;;;;;22.86;75.80;94230.94;5112842;28;20196;-75
2022/06/11 06:58:22;;;;;;;5.28;3.85;;;;;;;22.98;83.50;94218.72;5112843;28;20334;-76
2022/06/11 07:00:52;;;;;;;6.82;4.32;;;;;;;23.18;82.97;94213.16;5112861;28;20214;-79
2022/06/11 07:03:21;;;;;;;7.22;3.78;;;;;;;23.48;82.30;94227.91;5112035;28;20200;-76
2022/06/11 07:05:50;;;;;;;5.68;3.80;;;;;;;23.67;81.77;94223.38;5113703;27;20238;-75
2022/06/11 07:08:18;;;;;;;5.47;3.95;;;;;;;23.87;80.43;94225.56;5112928;28;20215;-80
2022/06/11 07:10:48;;;;;;;4.85;3.60;;;;;;;24.09;79.66;94228.34;5112135;28;20241;-76
2022/06/11 07:13:16;;;;;;;6.53;3.70;;;;;;;24.29;78.38;94226.13;5112491;28;20222;-75
2022/06/11 07:15:44;;;;;;;5.00;3.70;;;;;;;24.42;77.23;94223.25;5113680;27;20405;-75
2022/06/11 07:18:17;;;;;;;4.20;3.28;;;;;;;24.64;75.85;94233.81;5112450;28;20193;-77
2022/06/11 07:20:46;;;;;;;4.43;3.63;;;;;;;24.82;75.51;94238.03;5112207;28;20239;-74
2022/06/11 07:23:18;;;;;;;3.97;3.58;;;;;;;24.98;73.75;94242.47;5112689;28;20685;-75
2022/06/11 07:25:50;;;;;;;5.82;4.35;;;;;;;25.11;73.23;94244.00;5109655;27;20197;-75
2022/06/11 07:28:30;;;;;;;5.07;3.97;;;;;;;25.25;72.38;94257.56;5110009;28;20725;-81
2022/06/11 07:31:00;;;;;;;4.90;4.40;;;;;;;25.34;71.57;94245.66;5110149;28;20280;-80
2022/06/11 07:33:35;;;;;;;7.47;5.13;;;;;;;25.47;71.06;94255.78;5111140;28;20185;-81
2022/06/11 07:36:02;;;;;;;5.72;4.80;;;;;;;25.47;70.72;94242.69;5111255;27;20185;-77
2022/06/11 07:38:31;;;;;;;5.30;4.80;;;;;;;25.64;70.55;94258.38;5110248;28;20567;-77
2022/06/11 07:40:58;;;;;;;6.65;5.30;;;;;;;25.67;70.24;94260.50;5110279;28;20532;-76
2022/06/11 07:43:25;;;;;;;5.78;4.95;;;;;;;25.73;69.45;94264.00;5112009;27;20185;-74
2022/06/11 07:45:52;;;;;;;6.63;4.88;;;;;;;25.72;69.31;94263.19;5111812;28;20636;-76
2022/06/11 07:48:18;;;;;;;5.18;4.55;;;;;;;25.81;68.95;94268.84;5110896;27;20261;-75
2022/06/11 07:50:48;;;;;;;6.07;4.80;;;;;;;25.83;69.07;94258.13;5109224;28;20656;-77
2022/06/11 07:53:15;;;;;;;5.95;4.95;;;;;;;25.88;68.67;94255.56;5109302;28;20909;-77
2022/06/11 07:55:46;;;;;;;6.43;4.93;;;;;;;26.03;68.45;94263.59;5109331;28;20196;-78
2022/06/11 07:58:15;;;;;;;5.45;4.95;;;;;;;26.14;67.85;94259.28;5112950;27;20453;-76
2022/06/11 08:00:45;;;;;;;5.55;4.82;;;;;;;26.25;67.16;94263.59;5122994;27;20629;-75
2022/06/11 08:03:12;;;;;;;9.77;5.28;;;;;;;26.38;66.44;94252.75;5130154;27;20183;-76
2022/06/11 08:05:41;;;;;;;5.68;4.88;;;;;;;26.50;66.73;94253.41;5129896;27;20188;-76
2022/06/11 08:08:09;;;;;;;9.27;4.60;;;;;;;26.68;66.08;94264.59;5129671;27;20219;-77
2022/06/11 08:10:37;;;;;;;5.95;4.50;;;;;;;26.81;66.04;94261.56;5117939;27;20192;-78
2022/06/11 08:13:05;;;;;;;4.95;4.45;;;;;;;26.98;65.19;94264.06;5119638;27;20196;-78
2022/06/11 08:15:32;;;;;;;4.93;4.43;;;;;;;27.05;64.86;94254.16;5109173;28;20204;-77
2022/06/11 08:18:00;;;;;;;5.57;4.28;;;;;;;27.21;64.26;94270.84;5108987;28;20185;-76
2022/06/11 08:20:29;;;;;;;4.40;4.00;;;;;;;27.30;63.32;94269.34;5109316;28;20208;-75
2022/06/11 08:22:56;;;;;;;4.63;4.10;;;;;;;27.35;63.17;94268.59;5122513;27;20299;-75
2022/06/11 08:25:24;;;;;;;4.82;4.40;;;;;;;27.49;62.74;94270.50;5108789;28;20193;-77
2022/06/11 08:27:52;;;;;;;4.78;4.30;;;;;;;27.57;62.35;94264.00;5114882;27;20215;-77
2022/06/11 08:30:23;;;;;;;5.30;4.40;;;;;;;27.71;62.48;94267.75;5122527;27;20238;-77
2022/06/11 08:32:50;;;;;;;4.57;3.92;;;;;;;27.84;62.06;94266.53;5109480;28;20181;-76
2022/06/11 08:35:18;;;;;;;5.90;3.90;;;;;;;27.97;61.16;94262.66;5108886;28;20193;-77
2022/06/11 08:37:45;;;;;;;4.63;3.90;;;;;;;28.10;60.91;94259.53;5108320;28;20240;-75
2022/06/11 08:40:18;;;;;;;4.20;3.80;;;;;;;28.19;60.70;94250.09;5108369;28;20193;-77
2022/06/11 08:42:49;;;;;;;4.50;4.10;;;;;;;28.38;60.00;94254.94;5115219;27;20188;-76
2022/06/11 08:45:20;;;;;;;10.27;3.92;;;;;;;28.58;59.42;94254.97;5116894;27;20196;-76
2022/06/11 08:47:50;;;;;;;8.50;4.53;;;;;;;28.78;59.40;94256.06;5122600;27;20232;-76
2022/06/11 08:50:20;;;;;;;14.02;3.97;;;;;;;28.97;59.12;94254.50;5115032;27;20188;-77
2022/06/11 08:52:48;;;;;;;16.02;4.00;;;;;;;29.12;58.47;94256.38;5109097;28;20581;-75
2022/06/11 08:55:15;;;;;;;9.10;3.75;;;;;;;29.15;58.45;94251.38;5108175;27;20185;-78
2022/06/11 08:57:52;;;;;;;20.42;3.72;;;;;;;29.27;57.87;94250.28;5108026;28;20205;-76
2022/06/11 09:00:21;;;;;;;6.78;3.75;;;;;;;29.30;57.52;94253.19;5118104;27;20188;-77
2022/06/11 09:03:10;;;;;;;16.80;4.88;;;;;;;29.35;57.32;94255.81;5128027;27;20192;-76
2022/06/11 09:06:03;;;;;;;19.85;5.75;;;;;;;29.46;57.88;94252.13;5128958;27;20176;-76
2022/06/11 09:08:46;;;;;;;10.73;4.45;;;;;;;29.57;57.53;94252.91;5116841;27;20687;-75
2022/06/11 09:11:31;;;;;;;8.05;3.83;;;;;;;29.56;56.13;94251.34;5120518;27;20191;-79
2022/06/11 09:14:28;;;;;;;5.32;3.50;;;;;;;29.65;55.40;94252.34;5111582;28;20697;-80
2022/06/11 09:17:31;;;;;;;9.02;4.13;;;;;;;29.70;56.09;94254.19;5108192;28;20567;-77
2022/06/11 09:20:14;;;;;;;6.43;3.75;;;;;;;29.68;55.60;94251.06;5044833;28;20289;-79
2022/06/11 09:23:06;;;;;;;9.05;3.63;;;;;;;29.65;55.28;94251.56;5044562;28;20191;-79
2022/06/11 09:25:41;;;;;;;7.95;3.92;;;;;;;29.68;54.97;94251.06;5025024;28;20191;-78
2022/06/11 09:28:16;;;;;;;8.82;4.50;;;;;;;29.74;55.02;94249.97;5023764;28;20204;-81
2022/06/11 09:30:46;;;;;;;8.18;3.92;;;;;;;29.78;55.12;94256.28;5028854;28;20199;-80
2022/06/11 09:33:20;;;;;;;6.93;3.67;;;;;;;29.81;54.18;94252.34;5008850;28;20250;-78
2022/06/11 09:35:54;;;;;;;14.00;3.85;;;;;;;29.81;54.11;94244.44;5010053;28;20195;-79
2022/06/11 09:38:29;;;;;;;4.72;3.47;;;;;;;29.85;54.09;94242.84;5010583;28;20199;-78
2022/06/11 09:41:10;;;;;;;7.40;3.75;;;;;;;29.86;53.25;94254.94;5018417;28;20765;-77
2022/06/11 09:43:44;;;;;;;7.28;3.55;;;;;;;29.85;53.67;94256.81;5013815;28;20188;-81
2022/06/11 09:46:20;;;;;;;6.40;3.55;;;;;;;29.85;53.73;94267.34;5009094;28;20368;-77
2022/06/11 09:49:06;;;;;;;4.03;3.60;;;;;;;29.88;53.68;94261.53;5008532;28;20242;-79
2022/06/11 09:51:44;;;;;;;6.90;4.07;;;;;;;29.88;53.68;94266.00;5008747;28;20627;-80
2022/06/11 09:54:29;;;;;;;6.25;3.53;;;;;;;29.88;53.33;94269.47;5008984;28;20203;-77
2022/06/11 09:57:06;;;;;;;4.57;3.55;;;;;;;29.85;53.06;94263.91;5039815;28;20217;-77
2022/06/11 09:59:36;;;;;;;4.22;3.20;;;;;;;29.73;53.40;94256.31;5068219;28;20892;-75
2022/06/11 10:02:18;;;;;;;5.55;3.55;;;;;;;29.82;53.10;94261.81;5073249;28;20910;-77
2022/06/11 10:04:47;;;;;;;17.30;3.72;;;;;;;29.80;53.53;94264.72;5091056;28;20194;-78
2022/06/11 10:07:21;;;;;;;6.18;3.28;;;;;;;29.80;53.49;94259.47;5091318;28;20669;-79
2022/06/11 10:09:56;;;;;;;5.35;3.22;;;;;;;29.80;52.10;94259.47;5103627;27;20208;-80
2022/06/11 10:12:28;;;;;;;4.45;3.08;;;;;;;29.75;52.88;94259.47;5111742;28;20188;-76
2022/06/11 10:15:00;;;;;;;4.80;2.95;;;;;;;29.69;53.57;94252.63;5111335;28;20193;-76
2022/06/11 10:17:31;;;;;;;6.95;2.97;;;;;;;29.59;54.05;94253.44;5111368;28;20636;-73
2022/06/11 10:20:02;;;;;;;5.20;3.35;;;;;;;29.48;54.26;94250.00;5110963;28;20196;-74
2022/06/11 10:22:35;;;;;;;4.00;2.90;;;;;;;29.43;54.15;94255.28;5130393;27;20624;-78
2022/06/11 10:25:14;;;;;;;4.50;3.00;;;;;;;29.33;54.84;94255.31;5131356;27;20245;-76
2022/06/11 10:27:46;;;;;;;3.75;3.00;;;;;;;29.21;55.00;94258.19;5131918;27;20199;-80
2022/06/11 10:30:24;;;;;;;4.75;3.22;;;;;;;29.09;54.89;94262.94;5129822;27;20204;-79
2022/06/11 10:32:55;;;;;;;3.67;2.88;;;;;;;28.93;54.69;94267.41;5131443;27;20180;-80
2022/06/11 10:35:26;;;;;;;5.43;3.70;;;;;;;28.74;53.94;94269.72;5131022;27;20184;-79
2022/06/11 10:38:06;;;;;;;4.20;2.95;;;;;;;28.65;54.29;94288.94;5129139;27;20193;-79
2022/06/11 10:40:38;;;;;;;3.70;3.38;;;;;;;28.44;54.60;94285.47;5114917;27;20194;-79
2022/06/11 10:43:14;;;;;;;3.63;2.95;;;;;;;28.29;54.41;94298.56;5110511;28;20975;-79
2022/06/11 10:45:41;;;;;;;6.05;3.15;;;;;;;28.12;54.80;94302.16;5110808;28;20197;-81
2022/06/11 10:48:19;;;;;;;3.88;3.20;;;;;;;27.95;55.11;94306.81;5110920;28;20584;-81
2022/06/11 10:50:47;;;;;;;5.03;3.08;;;;;;;27.85;55.75;94314.63;5110713;28;20283;-74
2022/06/11 10:53:20;;;;;;;4.57;3.13;;;;;;;27.64;55.92;94298.72;5110713;28;20200;-76
2022/06/11 10:55:50;;;;;;;4.15;3.10;;;;;;;27.63;56.23;94317.34;5110942;28;20204;-81
2022/06/11 10:58:24;;;;;;;5.82;3.33;;;;;;;27.51;56.83;94320.97;5113790;27;20643;-79
2022/06/11 11:00:54;;;;;;;5.57;3.00;;;;;;;27.42;56.78;94316.44;5130779;27;20191;-77
2022/06/11 11:03:29;;;;;;;3.92;2.97;;;;;;;27.37;57.00;94313.75;5125755;27;20192;-78
2022/06/11 11:06:01;;;;;;;3.08;2.78;;;;;;;27.30;57.24;94315.81;5110334;28;20655;-79
2022/06/11 11:08:30;;;;;;;4.18;2.88;;;;;;;27.28;57.80;94313.44;5109714;28;20300;-80
2022/06/11 11:11:00;;;;;;;3.75;3.30;;;;;;;27.25;58.03;94320.00;5110566;28;20651;-75
2022/06/11 11:13:35;;;;;;;3.60;3.30;;;;;;;27.25;58.39;94312.13;5109969;28;20705;-78
2022/06/11 11:16:16;;;;;;;3.20;2.90;;;;;;;27.25;58.32;94312.13;5110636;28;20199;-79
2022/06/11 11:18:47;;;;;;;3.17;2.97;;;;;;;27.20;58.55;94300.75;5123648;27;20200;-78
2022/06/11 11:21:20;;;;;;;5.95;3.03;;;;;;;27.23;59.11;94298.44;5130639;27;20184;-77
2022/06/11 11:23:51;;;;;;;5.10;3.35;;;;;;;27.41;60.57;94309.59;5130755;27;20180;-76
2022/06/11 11:26:27;;;;;;;3.65;2.80;;;;;;;27.52;61.91;94308.63;5130297;27;20204;-75
2022/06/11 11:28:57;;;;;;;6.75;4.03;;;;;;;27.59;62.31;94300.50;5130014;27;20717;-77
2022/06/11 11:31:28;;;;;;;5.15;3.13;;;;;;;27.69;62.93;94296.13;5130209;27;20183;-79
2022/06/11 11:34:00;;;;;;;3.75;3.15;;;;;;;27.83;62.65;94298.31;5130225;27;20196;-79
2022/06/11 11:36:30;;;;;;;4.30;2.78;;;;;;;27.93;62.57;94298.38;5128768;27;20200;-78
2022/06/11 11:39:21;;;;;;;4.72;3.42;;;;;;;28.02;61.48;94294.22;5109614;28;20185;-79
2022/06/11 11:41:53;;;;;;;4.72;2.88;;;;;;;28.01;61.90;94297.88;5109652;28;20185;-76
2022/06/11 11:44:22;;;;;;;3.90;2.53;;;;;;;28.07;62.47;94296.88;5109929;28;20193;-79
2022/06/11 11:46:54;;;;;;;4.60;3.42;;;;;;;28.15;62.88;94299.03;5109520;28;20197;-77
2022/06/11 11:49:25;;;;;;;6.30;2.80;;;;;;;28.24;63.26;94300.13;5108907;28;20229;-79
2022/06/11 11:51:53;;;;;;;7.80;3.30;;;;;;;28.27;62.83;94286.44;5109181;28;20185;-76
2022/06/11 11:54:27;;;;;;;4.55;2.88;;;;;;;28.44;62.53;94299.41;5109531;28;20199;-77
2022/06/11 11:56:58;;;;;;;3.67;2.72;;;;;;;28.52;62.39;94292.84;5109790;28;20192;-78
2022/06/11 11:59:33;;;;;;;2.88;2.50;;;;;;;28.59;61.96;94284.72;5110741;27;20185;-78